Terminal Aerodrome Forecast
Issued by NWS Wichita, KS

Home | Current Version | Previous Version | Text Only | Print | Product List | Glossary Off
Versions: 1 2 3 4 5 6 7 8 9 10 11 12 13 14 15 16 17 18 19 20 21 22 23 24 25 26 27

000
FTUS43 KICT 190957 AAC
TAFICT
TAF AMD
KICT 190957Z 1910/2006 16009KT 4SM BR SCT002 OVC007
      TEMPO 1910/1913 1SM BR BKN002
     FM191300 15009KT 4SM BR OVC003
     FM191700 16007KT P6SM OVC008
     FM192000 16007KT P6SM OVC013=

USA.gov is the U.S. government's official web portal to all federal, state and local government web resources and services.